sensor_id;sensor_type;location;lat;lon;timestamp;temperature;humidity
21393;DHT22;10857;52.228;21.026;2022-10-26T06:42:50;12.60;99.90
21393;DHT22;10857;52.228;21.026;2022-10-26T06:45:17;12.70;99.90
21393;DHT22;10857;52.228;21.026;2022-10-26T06:47:52;12.70;99.90
21393;DHT22;10857;52.228;21.026;2022-10-26T06:55:57;12.80;99.90
21393;DHT22;10857;52.228;21.026;2022-10-26T06:58:32;12.70;99.90
21393;DHT22;10857;52.228;21.026;2022-10-26T07:01:00;12.80;99.90
21393;DHT22;10857;52.228;21.026;2022-10-26T07:03:27;12.80;99.90
21393;DHT22;10857;52.228;21.026;2022-10-26T07:05:54;12.70;99.90
21393;DHT22;10857;52.228;21.026;2022-10-26T07:08:21;12.70;99.90
21393;DHT22;10857;52.228;21.026;2022-10-26T07:10:48;12.70;99.90
21393;DHT22;10857;52.228;21.026;2022-10-26T07:13:15;12.60;99.90
21393;DHT22;10857;52.228;21.026;2022-10-26T07:15:42;12.70;99.90
21393;DHT22;10857;52.228;21.026;2022-10-26T07:18:09;12.70;99.90
21393;DHT22;10857;52.228;21.026;2022-10-26T07:20:38;12.60;99.90
21393;DHT22;10857;52.228;21.026;2022-10-26T07:23:06;12.70;99.90
21393;DHT22;10857;52.228;21.026;2022-10-26T07:25:34;12.70;99.90
21393;DHT22;10857;52.228;21.026;2022-10-26T07:28:01;12.70;99.90
21393;DHT22;10857;52.228;21.026;2022-10-26T07:30:29;12.70;99.90
21393;DHT22;10857;52.228;21.026;2022-10-26T07:33:04;12.70;99.90
21393;DHT22;10857;52.228;21.026;2022-10-26T07:35:32;12.80;99.90
21393;DHT22;10857;52.228;21.026;2022-10-26T07:38:00;12.60;99.90
21393;DHT22;10857;52.228;21.026;2022-10-26T07:40:27;12.40;99.90
21393;DHT22;10857;52.228;21.026;2022-10-26T07:42:58;12.50;99.90
21393;DHT22;10857;52.228;21.026;2022-10-26T07:45:26;12.50;99.90
21393;DHT22;10857;52.228;21.026;2022-10-26T07:47:53;12.60;99.90
21393;DHT22;10857;52.228;21.026;2022-10-26T07:50:20;12.60;99.90
21393;DHT22;10857;52.228;21.026;2022-10-26T07:52:48;12.80;99.90
21393;DHT22;10857;52.228;21.026;2022-10-26T07:55:15;12.70;99.90
21393;DHT22;10857;52.228;21.026;2022-10-26T07:57:42;12.80;99.90
21393;DHT22;10857;52.228;21.026;2022-10-26T08:00:09;12.80;99.90
21393;DHT22;10857;52.228;21.026;2022-10-26T08:02:37;12.90;99.90
21393;DHT22;10857;52.228;21.026;2022-10-26T08:05:04;13.00;99.90
21393;DHT22;10857;52.228;21.026;2022-10-26T08:07:31;13.00;99.90
21393;DHT22;10857;52.228;21.026;2022-10-26T08:09:58;12.90;99.90
21393;DHT22;10857;52.228;21.026;2022-10-26T08:12:26;12.80;99.90
21393;DHT22;10857;52.228;21.026;2022-10-26T08:14:53;12.70;99.90
21393;DHT22;10857;52.228;21.026;2022-10-26T08:17:20;12.70;99.90
21393;DHT22;10857;52.228;21.026;2022-10-26T08:19:48;12.50;99.90
21393;DHT22;10857;52.228;21.026;2022-10-26T08:22:15;12.40;99.90
21393;DHT22;10857;52.228;21.026;2022-10-26T08:24:42;12.50;99.90
21393;DHT22;10857;52.228;21.026;2022-10-26T08:27:13;12.60;99.90
21393;DHT22;10857;52.228;21.026;2022-10-26T08:29:41;12.50;99.90
21393;DHT22;10857;52.228;21.026;2022-10-26T08:32:08;12.60;99.90
21393;DHT22;10857;52.228;21.026;2022-10-26T08:34:34;12.50;99.90
21393;DHT22;10857;52.228;21.026;2022-10-26T08:37:01;12.50;99.90
21393;DHT22;10857;52.228;21.026;2022-10-26T08:39:28;12.20;99.90
21393;DHT22;10857;52.228;21.026;2022-10-26T08:42:24;12.30;99.90
21393;DHT22;10857;52.228;21.026;2022-10-26T08:44:58;12.50;99.90
21393;DHT22;10857;52.228;21.026;2022-10-26T08:47:33;12.60;99.90
21393;DHT22;10857;52.228;21.026;2022-10-26T08:50:15;12.60;99.90
21393;DHT22;10857;52.228;21.026;2022-10-26T08:52:52;12.60;99.90
21393;DHT22;10857;52.228;21.026;2022-10-26T08:55:41;12.40;99.90
21393;DHT22;10857;52.228;21.026;2022-10-26T08:58:16;12.50;99.90
21393;DHT22;10857;52.228;21.026;2022-10-26T09:00:46;12.50;99.90
21393;DHT22;10857;52.228;21.026;2022-10-26T09:03:15;12.50;99.90
21393;DHT22;10857;52.228;21.026;2022-10-26T09:08:55;12.30;99.90
21393;DHT22;10857;52.228;21.026;2022-10-26T09:16:52;12.20;99.90
21393;DHT22;10857;52.228;21.026;2022-10-26T09:25:27;12.50;99.90
21393;DHT22;10857;52.228;21.026;2022-10-26T09:27:59;12.50;99.90
21393;DHT22;10857;52.228;21.026;2022-10-26T09:30:27;12.60;99.90
21393;DHT22;10857;52.228;21.026;2022-10-26T09:33:03;12.60;99.90
21393;DHT22;10857;52.228;21.026;2022-10-26T09:38:30;12.50;99.90
21393;DHT22;10857;52.228;21.026;2022-10-26T09:46:52;12.50;99.90
21393;DHT22;10857;52.228;21.026;2022-10-26T09:49:27;12.60;99.90
21393;DHT22;10857;52.228;21.026;2022-10-26T09:51:58;12.60;99.90
21393;DHT22;10857;52.228;21.026;2022-10-26T09:54:25;12.80;99.90
21393;DHT22;10857;52.228;21.026;2022-10-26T09:56:58;12.80;99.90
21393;DHT22;10857;52.228;21.026;2022-10-26T09:59:26;12.90;99.90
21393;DHT22;10857;52.228;21.026;2022-10-26T10:01:53;12.90;99.90
21393;DHT22;10857;52.228;21.026;2022-10-26T10:04:21;12.70;99.90
21393;DHT22;10857;52.228;21.026;2022-10-26T10:07:11;12.70;99.90
21393;DHT22;10857;52.228;21.026;2022-10-26T10:09:39;12.60;99.90
21393;DHT22;10857;52.228;21.026;2022-10-26T10:12:19;12.70;99.90
21393;DHT22;10857;52.228;21.026;2022-10-26T10:14:57;12.70;99.90
21393;DHT22;10857;52.228;21.026;2022-10-26T10:17:24;12.90;99.90
21393;DHT22;10857;52.228;21.026;2022-10-26T10:19:52;12.90;99.90
21393;DHT22;10857;52.228;21.026;2022-10-26T10:22:23;13.00;99.90
21393;DHT22;10857;52.228;21.026;2022-10-26T10:24:57;13.20;99.90
21393;DHT22;10857;52.228;21.026;2022-10-26T10:27:25;13.20;99.90
21393;DHT22;10857;52.228;21.026;2022-10-26T10:29:55;13.20;99.90
21393;DHT22;10857;52.228;21.026;2022-10-26T10:32:30;13.10;99.90
21393;DHT22;10857;52.228;21.026;2022-10-26T10:35:22;13.20;99.90
21393;DHT22;10857;52.228;21.026;2022-10-26T10:37:50;13.00;99.90
21393;DHT22;10857;52.228;21.026;2022-10-26T10:40:23;13.10;99.90
21393;DHT22;10857;52.228;21.026;2022-10-26T10:42:54;13.10;99.90
21393;DHT22;10857;52.228;21.026;2022-10-26T10:45:29;13.10;99.90
21393;DHT22;10857;52.228;21.026;2022-10-26T10:50:57;13.00;99.90
21393;DHT22;10857;52.228;21.026;2022-10-26T10:53:41;13.10;99.90
21393;DHT22;10857;52.228;21.026;2022-10-26T11:01:32;13.40;99.90
21393;DHT22;10857;52.228;21.026;2022-10-26T11:06:40;13.50;99.90
21393;DHT22;10857;52.228;21.026;2022-10-26T11:09:14;13.60;99.90
21393;DHT22;10857;52.228;21.026;2022-10-26T11:11:49;13.50;99.90
21393;DHT22;10857;52.228;21.026;2022-10-26T11:14:37;13.60;99.90
21393;DHT22;10857;52.228;21.026;2022-10-26T11:17:13;13.70;99.90
21393;DHT22;10857;52.228;21.026;2022-10-26T11:19:44;13.80;99.90
21393;DHT22;10857;52.228;21.026;2022-10-26T11:22:16;13.90;99.90
21393;DHT22;10857;52.228;21.026;2022-10-26T11:25:02;13.70;99.90
21393;DHT22;10857;52.228;21.026;2022-10-26T11:27:51;13.50;99.90
21393;DHT22;10857;52.228;21.026;2022-10-26T11:30:21;13.40;99.90
21393;DHT22;10857;52.228;21.026;2022-10-26T11:45:38;13.70;99.90
21393;DHT22;10857;52.228;21.026;2022-10-26T11:48:27;13.50;99.90
21393;DHT22;10857;52.228;21.026;2022-10-26T11:50:58;13.50;99.90
21393;DHT22;10857;52.228;21.026;2022-10-26T11:53:40;13.60;99.90
21393;DHT22;10857;52.228;21.026;2022-10-26T11:56:16;13.50;99.90
21393;DHT22;10857;52.228;21.026;2022-10-26T11:58:47;13.30;99.90
21393;DHT22;10857;52.228;21.026;2022-10-26T12:01:14;13.20;99.90
21393;DHT22;10857;52.228;21.026;2022-10-26T12:03:46;13.20;99.90
21393;DHT22;10857;52.228;21.026;2022-10-26T12:06:20;13.30;99.90
21393;DHT22;10857;52.228;21.026;2022-10-26T12:09:06;13.30;99.90
21393;DHT22;10857;52.228;21.026;2022-10-26T12:11:44;13.40;99.90
21393;DHT22;10857;52.228;21.026;2022-10-26T12:23:03;13.10;99.90
21393;DHT22;10857;52.228;21.026;2022-10-26T12:25:30;13.00;99.90
21393;DHT22;10857;52.228;21.026;2022-10-26T12:27:57;13.00;99.90
21393;DHT22;10857;52.228;21.026;2022-10-26T12:30:31;13.10;99.90
21393;DHT22;10857;52.228;21.026;2022-10-26T12:33:27;13.10;99.90
21393;DHT22;10857;52.228;21.026;2022-10-26T12:35:55;13.00;99.90
21393;DHT22;10857;52.228;21.026;2022-10-26T12:38:26;13.00;99.90
21393;DHT22;10857;52.228;21.026;2022-10-26T12:43:34;13.10;99.90
21393;DHT22;10857;52.228;21.026;2022-10-26T12:48:50;13.20;99.90
21393;DHT22;10857;52.228;21.026;2022-10-26T13:07:50;13.40;99.90
21393;DHT22;10857;52.228;21.026;2022-10-26T13:10:20;13.40;99.90
21393;DHT22;10857;52.228;21.026;2022-10-26T13:12:50;13.40;99.90
21393;DHT22;10857;52.228;21.026;2022-10-26T13:20:36;13.40;99.90
21393;DHT22;10857;52.228;21.026;2022-10-26T13:23:15;13.40;99.90
21393;DHT22;10857;52.228;21.026;2022-10-26T13:26:07;13.40;99.90
21393;DHT22;10857;52.228;21.026;2022-10-26T13:29:08;13.40;99.90
21393;DHT22;10857;52.228;21.026;2022-10-26T13:34:17;13.30;99.90
21393;DHT22;10857;52.228;21.026;2022-10-26T13:39:25;13.40;99.90
21393;DHT22;10857;52.228;21.026;2022-10-26T13:41:53;13.40;99.90
21393;DHT22;10857;52.228;21.026;2022-10-26T13:44:41;13.40;99.90
21393;DHT22;10857;52.228;21.026;2022-10-26T13:47:15;13.40;99.90
21393;DHT22;10857;52.228;21.026;2022-10-26T13:49:51;13.40;99.90
21393;DHT22;10857;52.228;21.026;2022-10-26T13:52:26;13.30;99.90
21393;DHT22;10857;52.228;21.026;2022-10-26T13:55:02;13.40;99.90
21393;DHT22;10857;52.228;21.026;2022-10-26T13:57:43;13.40;99.90
21393;DHT22;10857;52.228;21.026;2022-10-26T14:00:20;13.40;99.90
21393;DHT22;10857;52.228;21.026;2022-10-26T14:02:49;13.40;99.90
21393;DHT22;10857;52.228;21.026;2022-10-26T14:05:17;13.50;99.90
21393;DHT22;10857;52.228;21.026;2022-10-26T14:07:51;13.30;99.90
21393;DHT22;10857;52.228;21.026;2022-10-26T14:10:40;13.40;99.90
21393;DHT22;10857;52.228;21.026;2022-10-26T14:13:12;13.40;99.90
21393;DHT22;10857;52.228;21.026;2022-10-26T14:15:43;13.40;99.90
21393;DHT22;10857;52.228;21.026;2022-10-26T14:18:22;13.40;99.90
21393;DHT22;10857;52.228;21.026;2022-10-26T14:21:05;13.50;99.90
21393;DHT22;10857;52.228;21.026;2022-10-26T14:23:44;13.40;99.90
21393;DHT22;10857;52.228;21.026;2022-10-26T14:26:19;13.40;99.90
21393;DHT22;10857;52.228;21.026;2022-10-26T14:28:49;13.30;99.90
21393;DHT22;10857;52.228;21.026;2022-10-26T14:33:48;13.20;99.90
21393;DHT22;10857;52.228;21.026;2022-10-26T14:36:16;13.20;99.90
21393;DHT22;10857;52.228;21.026;2022-10-26T14:38:48;13.10;99.90
21393;DHT22;10857;52.228;21.026;2022-10-26T14:41:17;13.10;99.90
21393;DHT22;10857;52.228;21.026;2022-10-26T14:43:45;13.10;99.90
21393;DHT22;10857;52.228;21.026;2022-10-26T14:46:17;13.10;99.90
21393;DHT22;10857;52.228;21.026;2022-10-26T14:48:58;13.10;99.90
21393;DHT22;10857;52.228;21.026;2022-10-26T14:51:29;13.20;99.90
21393;DHT22;10857;52.228;21.026;2022-10-26T14:53:57;13.20;99.90
21393;DHT22;10857;52.228;21.026;2022-10-26T14:58:54;13.10;99.90
21393;DHT22;10857;52.228;21.026;2022-10-26T15:04:01;13.00;99.90
21393;DHT22;10857;52.228;21.026;2022-10-26T15:06:40;13.10;99.90
21393;DHT22;10857;52.228;21.026;2022-10-26T15:09:31;13.10;99.90
21393;DHT22;10857;52.228;21.026;2022-10-26T15:11:59;13.00;99.90
21393;DHT22;10857;52.228;21.026;2022-10-26T15:14:28;13.00;99.90
21393;DHT22;10857;52.228;21.026;2022-10-26T15:16:56;13.00;99.90
21393;DHT22;10857;52.228;21.026;2022-10-26T15:19:25;13.00;99.90
21393;DHT22;10857;52.228;21.026;2022-10-26T15:21:53;13.00;99.90
21393;DHT22;10857;52.228;21.026;2022-10-26T15:24:23;13.00;99.90
21393;DHT22;10857;52.228;21.026;2022-10-26T15:26:52;13.00;99.90
21393;DHT22;10857;52.228;21.026;2022-10-26T15:29:39;13.00;99.90
21393;DHT22;10857;52.228;21.026;2022-10-26T15:32:31;13.10;99.90
21393;DHT22;10857;52.228;21.026;2022-10-26T15:37:37;13.00;99.90
21393;DHT22;10857;52.228;21.026;2022-10-26T15:40:05;13.00;99.90
21393;DHT22;10857;52.228;21.026;2022-10-26T15:42:37;13.00;99.90
21393;DHT22;10857;52.228;21.026;2022-10-26T15:45:20;13.10;99.90
21393;DHT22;10857;52.228;21.026;2022-10-26T15:47:48;13.00;99.90
21393;DHT22;10857;52.228;21.026;2022-10-26T15:50:23;12.90;99.90
21393;DHT22;10857;52.228;21.026;2022-10-26T15:52:55;12.90;99.90
21393;DHT22;10857;52.228;21.026;2022-10-26T15:55:24;12.80;99.90
21393;DHT22;10857;52.228;21.026;2022-10-26T15:57:51;12.80;99.90
21393;DHT22;10857;52.228;21.026;2022-10-26T16:00:19;12.80;99.90
21393;DHT22;10857;52.228;21.026;2022-10-26T16:02:45;12.70;99.90
21393;DHT22;10857;52.228;21.026;2022-10-26T16:05:14;12.70;99.90
21393;DHT22;10857;52.228;21.026;2022-10-26T16:07:44;12.70;99.90
21393;DHT22;10857;52.228;21.026;2022-10-26T16:10:24;12.70;99.90
21393;DHT22;10857;52.228;21.026;2022-10-26T16:12:54;12.60;99.90
21393;DHT22;10857;52.228;21.026;2022-10-26T16:15:22;12.60;99.90
21393;DHT22;10857;52.228;21.026;2022-10-26T16:17:50;12.50;99.90
21393;DHT22;10857;52.228;21.026;2022-10-26T16:20:21;12.60;99.90
21393;DHT22;10857;52.228;21.026;2022-10-26T16:22:50;12.50;99.90
21393;DHT22;10857;52.228;21.026;2022-10-26T16:25:21;12.60;99.90
21393;DHT22;10857;52.228;21.026;2022-10-26T16:27:49;12.60;99.90
21393;DHT22;10857;52.228;21.026;2022-10-26T16:30:17;12.60;99.90
21393;DHT22;10857;52.228;21.026;2022-10-26T16:32:44;12.60;99.90
21393;DHT22;10857;52.228;21.026;2022-10-26T16:35:15;12.50;99.90
21393;DHT22;10857;52.228;21.026;2022-10-26T16:37:42;12.50;99.90
21393;DHT22;10857;52.228;21.026;2022-10-26T16:40:09;12.50;99.90
21393;DHT22;10857;52.228;21.026;2022-10-26T16:42:36;12.40;99.90
21393;DHT22;10857;52.228;21.026;2022-10-26T16:45:06;12.40;99.90
21393;DHT22;10857;52.228;21.026;2022-10-26T16:47:33;12.40;99.90
21393;DHT22;10857;52.228;21.026;2022-10-26T16:50:10;12.40;99.90
21393;DHT22;10857;52.228;21.026;2022-10-26T16:52:38;12.40;99.90
21393;DHT22;10857;52.228;21.026;2022-10-26T16:55:06;12.50;99.90
21393;DHT22;10857;52.228;21.026;2022-10-26T16:57:34;12.50;99.90
21393;DHT22;10857;52.228;21.026;2022-10-26T17:00:03;12.60;99.90
21393;DHT22;10857;52.228;21.026;2022-10-26T17:02:31;12.60;99.90
21393;DHT22;10857;52.228;21.026;2022-10-26T17:04:58;12.70;99.90
21393;DHT22;10857;52.228;21.026;2022-10-26T17:07:33;12.70;99.90
21393;DHT22;10857;52.228;21.026;2022-10-26T17:10:00;12.70;99.90
21393;DHT22;10857;52.228;21.026;2022-10-26T17:12:28;12.70;99.90
21393;DHT22;10857;52.228;21.026;2022-10-26T17:14:56;12.80;99.90
21393;DHT22;10857;52.228;21.026;2022-10-26T17:17:25;12.80;99.90
21393;DHT22;10857;52.228;21.026;2022-10-26T17:19:52;12.90;99.90
21393;DHT22;10857;52.228;21.026;2022-10-26T17:22:19;12.90;99.90
21393;DHT22;10857;52.228;21.026;2022-10-26T17:24:47;12.90;99.90
21393;DHT22;10857;52.228;21.026;2022-10-26T17:27:14;12.90;99.90
21393;DHT22;10857;52.228;21.026;2022-10-26T17:29:42;13.00;99.90
21393;DHT22;10857;52.228;21.026;2022-10-26T17:32:09;13.00;99.90
21393;DHT22;10857;52.228;21.026;2022-10-26T17:34:37;13.00;99.90
21393;DHT22;10857;52.228;21.026;2022-10-26T17:37:04;12.90;99.90
21393;DHT22;10857;52.228;21.026;2022-10-26T17:39:31;12.90;99.90
21393;DHT22;10857;52.228;21.026;2022-10-26T17:41:58;12.90;99.90
21393;DHT22;10857;52.228;21.026;2022-10-26T17:44:25;12.90;99.90
21393;DHT22;10857;52.228;21.026;2022-10-26T17:46:52;13.00;99.90
21393;DHT22;10857;52.228;21.026;2022-10-26T17:49:20;13.00;99.90
21393;DHT22;10857;52.228;21.026;2022-10-26T17:51:53;13.00;99.90
21393;DHT22;10857;52.228;21.026;2022-10-26T17:54:20;13.00;99.90
21393;DHT22;10857;52.228;21.026;2022-10-26T17:56:47;12.90;99.90
21393;DHT22;10857;52.228;21.026;2022-10-26T17:59:14;12.90;99.90
21393;DHT22;10857;52.228;21.026;2022-10-26T18:01:42;12.90;99.90
21393;DHT22;10857;52.228;21.026;2022-10-26T18:04:10;12.80;99.90
21393;DHT22;10857;52.228;21.026;2022-10-26T18:06:37;12.80;99.90
21393;DHT22;10857;52.228;21.026;2022-10-26T18:09:05;12.80;99.90
21393;DHT22;10857;52.228;21.026;2022-10-26T18:11:32;12.80;99.90
21393;DHT22;10857;52.228;21.026;2022-10-26T18:13:59;12.80;99.90
21393;DHT22;10857;52.228;21.026;2022-10-26T18:16:27;12.80;99.90
21393;DHT22;10857;52.228;21.026;2022-10-26T18:19:02;12.70;99.90
21393;DHT22;10857;52.228;21.026;2022-10-26T18:21:34;12.70;99.90
21393;DHT22;10857;52.228;21.026;2022-10-26T18:24:07;12.60;99.90
21393;DHT22;10857;52.228;21.026;2022-10-26T18:26:34;12.60;99.90
21393;DHT22;10857;52.228;21.026;2022-10-26T18:29:03;12.60;99.90
21393;DHT22;10857;52.228;21.026;2022-10-26T18:31:31;12.50;99.90
21393;DHT22;10857;52.228;21.026;2022-10-26T18:34:02;12.50;99.90
21393;DHT22;10857;52.228;21.026;2022-10-26T18:36:30;12.50;99.90
21393;DHT22;10857;52.228;21.026;2022-10-26T18:39:01;12.50;99.90
21393;DHT22;10857;52.228;21.026;2022-10-26T18:41:28;12.60;99.90
21393;DHT22;10857;52.228;21.026;2022-10-26T18:43:56;12.60;99.90
21393;DHT22;10857;52.228;21.026;2022-10-26T18:46:30;12.60;99.90
21393;DHT22;10857;52.228;21.026;2022-10-26T18:48:59;12.70;99.90
21393;DHT22;10857;52.228;21.026;2022-10-26T18:51:31;12.70;99.90
21393;DHT22;10857;52.228;21.026;2022-10-26T18:53:59;12.70;99.90
21393;DHT22;10857;52.228;21.026;2022-10-26T18:56:28;12.60;99.90
21393;DHT22;10857;52.228;21.026;2022-10-26T18:59:02;12.60;99.90
21393;DHT22;10857;52.228;21.026;2022-10-26T19:01:33;12.60;99.90
21393;DHT22;10857;52.228;21.026;2022-10-26T19:04:03;12.50;99.90
21393;DHT22;10857;52.228;21.026;2022-10-26T19:06:35;12.50;99.90
21393;DHT22;10857;52.228;21.026;2022-10-26T19:09:04;12.50;99.90
21393;DHT22;10857;52.228;21.026;2022-10-26T19:11:31;12.60;99.90
21393;DHT22;10857;52.228;21.026;2022-10-26T19:14:00;12.50;99.90
21393;DHT22;10857;52.228;21.026;2022-10-26T19:16:28;12.60;99.90
21393;DHT22;10857;52.228;21.026;2022-10-26T19:19:12;12.60;99.90
21393;DHT22;10857;52.228;21.026;2022-10-26T19:21:40;12.50;99.90
21393;DHT22;10857;52.228;21.026;2022-10-26T19:24:15;12.50;99.90
21393;DHT22;10857;52.228;21.026;2022-10-26T19:26:42;12.50;99.90
21393;DHT22;10857;52.228;21.026;2022-10-26T19:29:12;12.50;99.90
21393;DHT22;10857;52.228;21.026;2022-10-26T19:31:43;12.50;99.90
21393;DHT22;10857;52.228;21.026;2022-10-26T19:34:11;12.40;99.90
21393;DHT22;10857;52.228;21.026;2022-10-26T19:36:39;12.50;99.90
21393;DHT22;10857;52.228;21.026;2022-10-26T19:39:16;12.40;99.90
21393;DHT22;10857;52.228;21.026;2022-10-26T19:41:50;12.40;99.90
21393;DHT22;10857;52.228;21.026;2022-10-26T19:44:25;12.40;99.90
21393;DHT22;10857;52.228;21.026;2022-10-26T19:46:55;12.50;99.90
21393;DHT22;10857;52.228;21.026;2022-10-26T19:49:28;12.50;99.90
21393;DHT22;10857;52.228;21.026;2022-10-26T19:51:58;12.50;99.90
21393;DHT22;10857;52.228;21.026;2022-10-26T19:54:27;12.50;99.90
21393;DHT22;10857;52.228;21.026;2022-10-26T19:56:54;12.50;99.90
21393;DHT22;10857;52.228;21.026;2022-10-26T19:59:21;12.60;99.90
21393;DHT22;10857;52.228;21.026;2022-10-26T20:01:49;12.60;99.90
21393;DHT22;10857;52.228;21.026;2022-10-26T20:04:16;12.70;99.90
21393;DHT22;10857;52.228;21.026;2022-10-26T20:06:43;12.70;99.90
21393;DHT22;10857;52.228;21.026;2022-10-26T20:09:10;12.70;99.90
21393;DHT22;10857;52.228;21.026;2022-10-26T20:11:39;12.70;99.90
21393;DHT22;10857;52.228;21.026;2022-10-26T20:14:11;12.80;99.90
21393;DHT22;10857;52.228;21.026;2022-10-26T20:16:40;12.80;99.90
21393;DHT22;10857;52.228;21.026;2022-10-26T20:19:09;12.80;99.90
21393;DHT22;10857;52.228;21.026;2022-10-26T20:21:37;12.80;99.90
21393;DHT22;10857;52.228;21.026;2022-10-26T20:24:05;12.80;99.90
21393;DHT22;10857;52.228;21.026;2022-10-26T20:26:35;12.80;99.90
21393;DHT22;10857;52.228;21.026;2022-10-26T20:29:10;12.80;99.90
21393;DHT22;10857;52.228;21.026;2022-10-26T20:31:37;12.70;99.90
21393;DHT22;10857;52.228;21.026;2022-10-26T20:34:06;12.60;99.90
21393;DHT22;10857;52.228;21.026;2022-10-26T20:36:34;12.50;99.90
21393;DHT22;10857;52.228;21.026;2022-10-26T20:39:04;12.50;99.90
21393;DHT22;10857;52.228;21.026;2022-10-26T20:41:39;12.30;99.90
21393;DHT22;10857;52.228;21.026;2022-10-26T20:44:20;12.40;99.90
21393;DHT22;10857;52.228;21.026;2022-10-26T20:46:47;12.40;99.90
21393;DHT22;10857;52.228;21.026;2022-10-26T20:49:15;12.40;99.90
21393;DHT22;10857;52.228;21.026;2022-10-26T20:51:46;12.40;99.90
21393;DHT22;10857;52.228;21.026;2022-10-26T20:54:47;12.30;99.90
21393;DHT22;10857;52.228;21.026;2022-10-26T20:57:18;12.30;99.90
21393;DHT22;10857;52.228;21.026;2022-10-26T21:00:06;12.30;99.90
21393;DHT22;10857;52.228;21.026;2022-10-26T21:02:38;12.30;99.90
21393;DHT22;10857;52.228;21.026;2022-10-26T21:05:09;12.40;99.90
21393;DHT22;10857;52.228;21.026;2022-10-26T21:07:37;12.40;99.90
21393;DHT22;10857;52.228;21.026;2022-10-26T21:10:05;12.40;99.90
21393;DHT22;10857;52.228;21.026;2022-10-26T21:12:33;12.40;99.90
21393;DHT22;10857;52.228;21.026;2022-10-26T21:15:00;12.40;99.90
21393;DHT22;10857;52.228;21.026;2022-10-26T21:17:28;12.30;99.90
21393;DHT22;10857;52.228;21.026;2022-10-26T21:19:55;12.30;99.90
21393;DHT22;10857;52.228;21.026;2022-10-26T21:22:22;12.30;99.90
21393;DHT22;10857;52.228;21.026;2022-10-26T21:24:50;12.30;99.90
21393;DHT22;10857;52.228;21.026;2022-10-26T21:27:19;12.30;99.90
21393;DHT22;10857;52.228;21.026;2022-10-26T21:29:47;12.20;99.90
21393;DHT22;10857;52.228;21.026;2022-10-26T21:32:14;12.20;99.90
21393;DHT22;10857;52.228;21.026;2022-10-26T21:34:41;12.10;99.90
21393;DHT22;10857;52.228;21.026;2022-10-26T21:37:08;12.00;99.90
21393;DHT22;10857;52.228;21.026;2022-10-26T21:39:37;12.00;99.90
21393;DHT22;10857;52.228;21.026;2022-10-26T21:42:04;12.00;99.90
21393;DHT22;10857;52.228;21.026;2022-10-26T21:44:31;12.00;99.90
21393;DHT22;10857;52.228;21.026;2022-10-26T21:47:09;11.90;99.90
21393;DHT22;10857;52.228;21.026;2022-10-26T21:49:39;11.90;99.90
21393;DHT22;10857;52.228;21.026;2022-10-26T21:52:10;11.90;99.90
21393;DHT22;10857;52.228;21.026;2022-10-26T21:54:37;11.90;99.90
21393;DHT22;10857;52.228;21.026;2022-10-26T21:57:05;11.90;99.90
21393;DHT22;10857;52.228;21.026;2022-10-26T21:59:34;11.90;99.90
21393;DHT22;10857;52.228;21.026;2022-10-26T22:02:03;11.80;99.90
21393;DHT22;10857;52.228;21.026;2022-10-26T22:04:30;11.80;99.90
21393;DHT22;10857;52.228;21.026;2022-10-26T22:06:58;11.80;99.90
21393;DHT22;10857;52.228;21.026;2022-10-26T22:09:26;11.80;99.90
21393;DHT22;10857;52.228;21.026;2022-10-26T22:11:56;11.80;99.90
21393;DHT22;10857;52.228;21.026;2022-10-26T22:14:25;11.90;99.90
21393;DHT22;10857;52.228;21.026;2022-10-26T22:16:52;11.90;99.90
21393;DHT22;10857;52.228;21.026;2022-10-26T22:19:19;11.70;99.90
21393;DHT22;10857;52.228;21.026;2022-10-26T22:21:47;11.60;99.90
21393;DHT22;10857;52.228;21.026;2022-10-26T22:24:16;11.70;99.90
21393;DHT22;10857;52.228;21.026;2022-10-26T22:26:43;11.60;99.90
21393;DHT22;10857;52.228;21.026;2022-10-26T22:29:10;11.60;99.90
21393;DHT22;10857;52.228;21.026;2022-10-26T22:31:45;11.60;99.90
21393;DHT22;10857;52.228;21.026;2022-10-26T22:34:15;11.60;99.90
21393;DHT22;10857;52.228;21.026;2022-10-26T22:36:43;11.60;99.90
21393;DHT22;10857;52.228;21.026;2022-10-26T22:39:13;11.60;99.90
21393;DHT22;10857;52.228;21.026;2022-10-26T22:41:47;11.60;99.90
21393;DHT22;10857;52.228;21.026;2022-10-26T22:44:19;11.60;99.90
21393;DHT22;10857;52.228;21.026;2022-10-26T22:46:49;11.60;99.90
21393;DHT22;10857;52.228;21.026;2022-10-26T22:49:16;11.60;99.90
21393;DHT22;10857;52.228;21.026;2022-10-26T22:51:45;11.60;99.90
